createdAt,value
2018-11-05T00:01:17.762Z,21.57
2018-11-05T00:06:26.220Z,20.13
2018-11-05T00:11:34.542Z,22.80
2018-11-05T00:16:42.930Z,22.30
2018-11-05T00:21:51.199Z,19.67
2018-11-05T00:26:59.518Z,20.93
2018-11-05T00:32:08.540Z,19.00
2018-11-05T00:37:16.950Z,24.87
2018-11-05T00:42:25.308Z,20.53
2018-11-05T00:47:33.714Z,19.70
2018-11-05T00:52:42.080Z,21.83
2018-11-05T00:57:50.540Z,20.33
2018-11-05T01:02:58.843Z,22.07
2018-11-05T01:08:07.063Z,22.97
2018-11-05T01:13:15.387Z,19.20
2018-11-05T01:18:23.902Z,19.63
2018-11-05T01:23:32.338Z,21.00
2018-11-05T01:28:40.786Z,21.77
2018-11-05T01:33:49.110Z,23.40
2018-11-05T01:38:57.549Z,21.60
2018-11-05T01:44:05.842Z,22.10
2018-11-05T01:49:14.122Z,21.20
2018-11-05T01:54:22.502Z,18.33
2018-11-05T01:59:30.975Z,18.40
2018-11-05T02:04:39.314Z,21.93
2018-11-05T02:09:47.538Z,19.60
2018-11-05T02:14:55.859Z,21.20
2018-11-05T02:20:04.942Z,21.73
2018-11-05T02:25:13.629Z,21.93
2018-11-05T02:30:21.983Z,22.57
2018-11-05T02:35:30.407Z,21.70
2018-11-05T02:40:38.722Z,20.07
2018-11-05T02:45:47.049Z,18.73
2018-11-05T02:50:55.688Z,15.60
2018-11-05T02:56:05.222Z,18.27
2018-11-05T03:01:13.676Z,16.90
2018-11-05T03:06:22.085Z,22.03
2018-11-05T03:11:30.498Z,20.53
2018-11-05T03:16:38.866Z,21.90
2018-11-05T03:21:47.330Z,20.67
2018-11-05T03:26:55.546Z,24.30
2018-11-05T03:32:04.118Z,22.70
2018-11-05T03:37:12.575Z,21.00
2018-11-05T03:42:21.194Z,20.20
2018-11-05T03:47:29.547Z,20.97
2018-11-05T03:52:38.049Z,21.07
2018-11-05T03:57:46.359Z,23.83
2018-11-05T04:02:54.870Z,21.63
2018-11-05T04:08:03.150Z,24.87
2018-11-05T04:13:11.644Z,27.70
2018-11-05T04:18:20.112Z,26.43
2018-11-05T04:23:28.489Z,22.47
2018-11-05T04:28:36.859Z,24.80
2018-11-05T04:33:45.166Z,30.00
2018-11-05T04:38:53.782Z,23.50
2018-11-05T04:44:02.242Z,25.40
2018-11-05T04:49:10.506Z,32.63
2018-11-05T04:54:18.829Z,28.17
2018-11-05T04:59:27.305Z,78.87
2018-11-05T05:04:35.637Z,27.77
2018-11-05T05:09:43.934Z,46.47
2018-11-05T05:14:52.382Z,24.67
2018-11-05T05:20:00.809Z,25.87
2018-11-05T05:25:09.343Z,22.67
2018-11-05T05:30:18.722Z,26.10
2018-11-05T05:35:28.611Z,26.30
2018-11-05T05:40:37.099Z,31.27
2018-11-05T05:45:45.537Z,26.53
2018-11-05T05:50:53.826Z,29.13
2018-11-05T05:56:02.450Z,31.37
2018-11-05T06:01:11.061Z,33.00
2018-11-05T06:06:19.590Z,30.83
2018-11-05T06:11:27.975Z,33.20
2018-11-05T06:16:36.761Z,27.43
2018-11-05T06:21:45.056Z,29.87
2018-11-05T06:26:53.485Z,32.30
2018-11-05T06:32:01.891Z,35.40
2018-11-05T06:37:10.366Z,33.10
2018-11-05T06:42:18.809Z,38.10
2018-11-05T06:47:27.126Z,35.77
2018-11-05T06:52:35.707Z,35.03
2018-11-05T06:57:44.089Z,36.40
2018-11-05T07:02:52.510Z,29.00
2018-11-05T07:08:01.047Z,32.80
2018-11-05T07:13:09.377Z,32.80
2018-11-05T07:18:17.887Z,31.87
2018-11-05T07:23:26.470Z,34.73
2018-11-05T07:28:35.025Z,35.57
2018-11-05T07:33:43.674Z,37.03
2018-11-05T07:38:52.130Z,38.60
2018-11-05T07:44:00.684Z,35.23
2018-11-05T07:49:08.999Z,36.90
2018-11-05T07:54:17.530Z,42.10
2018-11-05T07:59:25.826Z,32.30
2018-11-05T08:04:34.415Z,31.80
2018-11-05T08:09:42.762Z,32.83
2018-11-05T08:14:51.249Z,32.03
2018-11-05T08:19:59.682Z,35.50
2018-11-05T08:25:09.094Z,36.30
2018-11-05T08:30:19.069Z,33.77
2018-11-05T08:35:27.670Z,36.70
2018-11-05T08:40:36.126Z,33.43
2018-11-05T08:45:44.474Z,28.90
2018-11-05T08:50:53.174Z,33.33
2018-11-05T08:56:01.511Z,33.03
2018-11-05T09:01:16.724Z,33.10
2018-11-05T09:06:25.075Z,35.90
2018-11-05T09:11:33.969Z,30.17
2018-11-05T09:16:42.012Z,32.33
2018-11-05T09:21:50.562Z,31.43
2018-11-05T09:26:59.025Z,31.73
2018-11-05T09:32:07.558Z,29.20
2018-11-05T09:37:16.106Z,29.23
2018-11-05T09:42:24.570Z,28.80
2018-11-05T09:47:33.110Z,30.13
2018-11-05T09:52:41.657Z,26.20
2018-11-05T09:57:50.129Z,34.90
2018-11-05T10:03:02.026Z,26.90
2018-11-05T10:08:10.282Z,31.70
2018-11-05T10:13:18.954Z,28.87
2018-11-05T10:18:27.469Z,29.67
2018-11-05T10:23:35.915Z,33.53
2018-11-05T10:28:44.550Z,27.37
2018-11-05T10:33:53.783Z,32.33
2018-11-05T10:39:02.642Z,31.47
2018-11-05T10:44:11.446Z,32.00
2018-11-05T10:49:20.105Z,31.83
2018-11-05T10:54:28.705Z,28.07
2018-11-05T10:59:37.198Z,30.67
2018-11-05T11:04:45.774Z,33.40
2018-11-05T11:09:54.397Z,33.60
2018-11-05T11:15:03.036Z,32.17
2018-11-05T11:20:12.790Z,28.13
2018-11-05T11:25:21.419Z,29.87
2018-11-05T11:30:30.081Z,28.03
2018-11-05T11:35:38.586Z,31.87
2018-11-05T11:40:47.201Z,32.87
2018-11-05T11:45:55.839Z,31.17
2018-11-05T11:51:04.682Z,31.70
2018-11-05T11:56:13.090Z,34.80
2018-11-05T12:01:21.754Z,27.73
2018-11-05T12:06:30.426Z,29.07
2018-11-05T12:11:39.046Z,34.70
2018-11-05T12:16:47.658Z,33.73
2018-11-05T12:21:56.312Z,33.33
2018-11-05T12:27:04.959Z,30.90
2018-11-05T12:32:13.658Z,30.33
2018-11-05T12:37:22.240Z,35.33
2018-11-05T12:42:31.102Z,37.40
2018-11-05T12:47:39.942Z,30.17
2018-11-05T12:52:49.370Z,33.40
2018-11-05T12:57:58.110Z,31.80
2018-11-05T13:03:06.814Z,35.00
2018-11-05T13:08:15.426Z,30.77
2018-11-05T13:13:23.970Z,29.07
2018-11-05T13:18:32.439Z,30.73
2018-11-05T13:23:44.922Z,32.60
2018-11-05T13:28:53.663Z,41.00
2018-11-05T13:34:02.314Z,31.30
2018-11-05T13:39:10.954Z,35.90
2018-11-05T13:44:19.922Z,33.73
2018-11-05T13:49:28.643Z,36.50
2018-11-05T13:54:37.321Z,32.67
2018-11-05T13:59:45.743Z,36.47
2018-11-05T14:04:54.306Z,34.07
2018-11-05T14:10:03.061Z,35.07
2018-11-05T14:15:11.746Z,32.20
2018-11-05T14:20:20.618Z,40.03
2018-11-05T14:25:29.299Z,31.23
2018-11-05T14:30:37.858Z,34.90
2018-11-05T14:35:46.297Z,35.73
2018-11-05T14:40:54.946Z,33.07
2018-11-05T14:46:03.566Z,33.03
2018-11-05T14:51:12.275Z,33.97
2018-11-05T14:56:21.045Z,35.37
2018-11-05T15:01:29.789Z,37.60
2018-11-05T15:06:38.398Z,34.67
2018-11-05T15:11:47.162Z,38.13
2018-11-05T15:16:55.711Z,37.97
2018-11-05T15:22:04.542Z,40.33
2018-11-05T15:27:13.262Z,38.37
2018-11-05T15:32:22.030Z,34.17
2018-11-05T15:37:30.675Z,34.10
2018-11-05T15:42:39.457Z,37.10
2018-11-05T15:47:48.062Z,33.40
2018-11-05T15:52:57.287Z,34.27
2018-11-05T15:58:05.508Z,34.53
2018-11-05T16:03:14.304Z,34.20
2018-11-05T16:08:22.936Z,45.80
2018-11-05T16:13:31.584Z,38.83
2018-11-05T16:18:40.590Z,34.80
2018-11-05T16:23:49.167Z,35.40
2018-11-05T16:28:57.788Z,41.53
2018-11-05T16:34:06.380Z,39.17
2018-11-05T16:39:15.150Z,39.63
2018-11-05T16:44:23.797Z,42.70
2018-11-05T16:49:32.574Z,38.90
2018-11-05T16:54:41.186Z,44.57
2018-11-05T16:59:49.834Z,41.83
2018-11-05T17:04:58.439Z,37.30
2018-11-05T17:10:08.615Z,45.20
2018-11-05T17:15:17.111Z,71.60
2018-11-05T17:20:25.739Z,43.17
2018-11-05T17:25:34.050Z,40.87
2018-11-05T17:30:42.564Z,59.47
2018-11-05T17:35:44.889Z,46.50
2018-11-05T17:40:47.134Z,56.13
2018-11-05T17:45:49.414Z,204.83
2018-11-05T17:50:51.730Z,83.67
2018-11-05T17:55:53.905Z,65.60
2018-11-05T18:00:56.170Z,49.93
2018-11-05T18:05:58.409Z,51.63
2018-11-05T18:11:00.662Z,43.97
2018-11-05T18:16:02.943Z,64.70
2018-11-05T18:21:05.293Z,48.33
2018-11-05T18:26:07.586Z,49.03
2018-11-05T18:31:09.928Z,42.77
2018-11-05T18:36:12.126Z,44.90
2018-11-05T18:41:14.387Z,44.73
2018-11-05T18:46:16.699Z,46.37
2018-11-05T18:51:19.155Z,48.47
2018-11-05T18:56:21.720Z,46.63
2018-11-05T19:01:24.333Z,56.97
2018-11-05T19:06:26.922Z,43.57
2018-11-05T19:11:29.464Z,61.00
2018-11-05T19:16:32.155Z,65.80
2018-11-05T19:21:34.731Z,79.40
2018-11-05T19:26:37.383Z,73.57
2018-11-05T19:31:39.710Z,53.70
2018-11-05T19:36:41.971Z,52.53
2018-11-05T19:41:45.016Z,59.00
2018-11-05T19:46:47.235Z,54.27
2018-11-05T19:51:49.506Z,236.00
2018-11-05T19:56:52.822Z,106.23
2018-11-05T20:01:55.122Z,57.40
2018-11-05T20:06:57.374Z,57.40
2018-11-05T20:12:00.491Z,61.80
2018-11-05T20:17:03.013Z,73.20
2018-11-05T20:22:05.460Z,61.70
2018-11-05T20:27:07.771Z,60.07
2018-11-05T20:32:10.469Z,67.87
2018-11-05T20:37:12.338Z,82.77
2018-11-05T20:42:14.710Z,81.10
2018-11-05T20:47:17.022Z,73.73
2018-11-05T20:52:19.393Z,73.40
2018-11-05T20:57:21.734Z,79.20
2018-11-05T21:02:24.043Z,70.53
2018-11-05T21:07:26.346Z,78.33
2018-11-05T21:12:28.746Z,77.93
2018-11-05T21:17:31.031Z,72.40
2018-11-05T21:22:33.410Z,86.83
2018-11-05T21:27:35.633Z,90.10
2018-11-05T21:32:38.135Z,95.33
2018-11-05T21:37:40.729Z,96.00
2018-11-05T21:42:43.022Z,104.10
2018-11-05T21:47:45.631Z,97.93
2018-11-05T21:52:48.221Z,103.47
2018-11-05T21:57:50.638Z,106.43
2018-11-05T22:02:58.815Z,88.60
2018-11-05T22:08:01.070Z,77.40
2018-11-05T22:13:03.933Z,71.67
2018-11-05T22:18:06.230Z,69.03
2018-11-05T22:23:08.481Z,71.00
2018-11-05T22:28:10.757Z,69.73
2018-11-05T22:33:13.054Z,64.33
2018-11-05T22:38:15.395Z,65.47
2018-11-05T22:43:17.685Z,74.43
2018-11-05T22:48:19.966Z,79.23
2018-11-05T22:53:22.278Z,73.60
2018-11-05T22:58:24.722Z,81.07
2018-11-05T23:03:28.258Z,91.13
2018-11-05T23:08:30.637Z,67.90
2018-11-05T23:13:32.991Z,79.90
2018-11-05T23:18:35.358Z,109.60
2018-11-05T23:23:37.654Z,72.73
2018-11-05T23:28:40.023Z,70.40
2018-11-05T23:33:42.529Z,124.10
2018-11-05T23:38:44.809Z,185.97
2018-11-05T23:43:47.082Z,110.67
2018-11-05T23:48:49.410Z,84.37
2018-11-05T23:53:51.685Z,111.30
2018-11-05T23:58:53.986Z,98.27
